Time;durP1;ratioP1;P1;durP2;ratioP2;P2;SDS_P1;SDS_P2;PMS_P1;PMS_P2;Temp;Humidity;BMP_temperature;BMP_pressure;BME280_temperature;BME280_humidity;BME280_pressure;Samples;Min_cycle;Max_cycle;Signal;HPM_P1;HPM_P2
2019/04/04 00:01:01;;;;;;;2.3;1.8;;;;;;;6.64;67.60645;944.5803;;;;
2019/04/04 00:03:08;;;;;;;1.8;1.6;;;;;;;6.74;68.07715;944.6053;;;;
2019/04/04 00:05:33;;;;;;;2.9;1.8;;;;;;;6.72;68.31543;944.5378;;;;
2019/04/04 00:07:59;;;;;;;2;1.8;;;;;;;6.83;67.37402;944.4151;;;;
2019/04/04 00:10:24;;;;;;;2;1.8;;;;;;;6.96;66.50391;944.437;;;;
2019/04/04 00:12:49;;;;;;;2.2;1.9;;;;;;;6.89;66.9834;944.4568;;;;
2019/04/04 00:15:14;;;;;;;2.2;2;;;;;;;6.73;68.39648;944.3123;;;;
2019/04/04 00:17:39;;;;;;;2.2;2;;;;;;;6.6;69.15039;944.3206;;;;
2019/04/04 00:20:05;;;;;;;2.2;1.8;;;;;;;6.68;67.36133;944.2957;;;;
2019/04/04 00:22:47;;;;;;;2.8;2;;;;;;;6.62;67.90039;944.1332;;;;
2019/04/04 00:25:16;;;;;;;2;1.8;;;;;;;6.67;68.30664;944.038;;;;
2019/04/04 00:27:42;;;;;;;2.3;2;;;;;;;6.61;67.47461;944.0957;;;;
2019/04/04 00:30:07;;;;;;;2;1.9;;;;;;;6.58;67.97168;944.1764;;;;
2019/04/04 00:32:32;;;;;;;2.5;2.1;;;;;;;6.52;68.43066;944.1947;;;;
2019/04/04 00:34:57;;;;;;;2.5;2.3;;;;;;;6.31;69.34375;944.1892;;;;
2019/04/04 00:37:22;;;;;;;2.5;2.1;;;;;;;6.4;69.08496;944.2405;;;;
2019/04/04 00:39:47;;;;;;;2.4;2.2;;;;;;;6.49;68.72168;944.0598;;;;
2019/04/04 00:42:12;;;;;;;2.4;2.2;;;;;;;6.51;69.09082;943.9631;;;;
2019/04/04 00:44:37;;;;;;;2.9;2.6;;;;;;;6.36;69.11328;943.9163;;;;
2019/04/04 00:47:03;;;;;;;2.8;2.6;;;;;;;6.33;69.27637;943.9589;;;;
2019/04/04 00:49:31;;;;;;;2.4;2.2;;;;;;;6.27;69.29199;943.9292;;;;
2019/04/04 00:51:56;;;;;;;2.9;2.7;;;;;;;6.14;69.69238;943.8125;;;;
2019/04/04 00:54:21;;;;;;;2.6;2.4;;;;;;;6.11;70.7793;943.665;;;;
2019/04/04 00:56:46;;;;;;;2.7;2.5;;;;;;;6.22;70.0127;943.6108;;;;
2019/04/04 00:59:11;;;;;;;2.8;2.6;;;;;;;6.28;70.21582;943.6267;;;;
2019/04/04 01:01:37;;;;;;;3.2;2.4;;;;;;;6.47;68.18457;943.6512;;;;
2019/04/04 01:04:08;;;;;;;2.7;2.5;;;;;;;6.55;68.57227;943.6481;;;;
2019/04/04 01:06:36;;;;;;;3.9;3.1;;;;;;;6.52;68.54492;943.5042;;;;
2019/04/04 01:09:03;;;;;;;3.4;3.1;;;;;;;6.35;69.47461;943.4003;;;;
2019/04/04 01:11:27;;;;;;;3.5;2.9;;;;;;;6.23;70.17285;943.3605;;;;
2019/04/04 01:13:53;;;;;;;3.6;3.3;;;;;;;6.17;70.9043;943.3575;;;;
2019/04/04 01:16:21;;;;;;;3.8;3.5;;;;;;;6.06;70.33789;943.303;;;;
2019/04/04 01:18:46;;;;;;;4.7;4.3;;;;;;;5.99;70.05273;943.2498;;;;
2019/04/04 01:21:11;;;;;;;4.5;4.1;;;;;;;5.93;70.52246;943.1431;;;;
2019/04/04 01:23:37;;;;;;;4.4;4;;;;;;;5.99;70.27246;943.1585;;;;
2019/04/04 01:26:02;;;;;;;4.3;3.9;;;;;;;6.12;70.51953;943.1337;;;;
2019/04/04 01:28:29;;;;;;;4.1;3.8;;;;;;;6.09;70.57129;943.1019;;;;
2019/04/04 01:30:54;;;;;;;3.9;3.6;;;;;;;6.15;70.64063;943.1429;;;;
2019/04/04 01:33:19;;;;;;;4.3;4;;;;;;;6.13;70.3623;943.1281;;;;
2019/04/04 01:35:44;;;;;;;4.5;4.1;;;;;;;6.2;69.53125;943.1636;;;;
2019/04/04 01:38:23;;;;;;;4.7;4.3;;;;;;;6.18;70.1084;943.0243;;;;
2019/04/04 01:43:01;;;;;;;4.4;4;;;;;;;6.31;69.50293;942.9293;;;;
2019/04/04 01:45:27;;;;;;;4.1;3.7;;;;;;;6.38;70.06055;942.7891;;;;
2019/04/04 01:47:52;;;;;;;4.7;4.2;;;;;;;6.08;70.42188;942.8052;;;;
2019/04/04 01:50:17;;;;;;;4.7;4.3;;;;;;;6.13;70.33984;942.8215;;;;
2019/04/04 01:52:42;;;;;;;5;4.6;;;;;;;6.15;69.8418;942.8155;;;;
2019/04/04 01:55:08;;;;;;;5.5;5;;;;;;;6.25;70.33496;942.8363;;;;
2019/04/04 01:57:34;;;;;;;5.8;5.2;;;;;;;6.13;71.08008;942.8519;;;;
2019/04/04 01:59:59;;;;;;;5.6;5.1;;;;;;;6.26;69.9043;942.8181;;;;
2019/04/04 02:02:24;;;;;;;5.8;5.3;;;;;;;6.04;71.4873;942.822;;;;
2019/04/04 02:04:54;;;;;;;6;5.5;;;;;;;5.95;72.22168;942.7831;;;;
2019/04/04 02:07:31;;;;;;;6.3;5.7;;;;;;;6.02;72.12012;942.7554;;;;
2019/04/04 02:09:56;;;;;;;6.7;6.1;;;;;;;5.94;72.0498;942.7239;;;;
2019/04/04 02:12:21;;;;;;;6.1;5.5;;;;;;;6.03;72.2373;942.6414;;;;
2019/04/04 02:14:46;;;;;;;6.1;5.5;;;;;;;6.05;72.33105;942.4282;;;;
2019/04/04 02:17:12;;;;;;;5.9;5.4;;;;;;;6.1;71.43848;942.4583;;;;
2019/04/04 02:19:37;;;;;;;6.1;5.6;;;;;;;5.92;71.23828;942.4794;;;;
2019/04/04 02:22:02;;;;;;;7.4;6.7;;;;;;;5.86;71.57031;942.3776;;;;
2019/04/04 02:24:27;;;;;;;8.8;8;;;;;;;5.81;72.24512;942.2707;;;;
2019/04/04 02:26:57;;;;;;;9.2;8.3;;;;;;;5.93;71.5127;942.2033;;;;
2019/04/04 02:29:22;;;;;;;9.6;8.7;;;;;;;5.88;71.44824;942.1646;;;;
2019/04/04 02:31:51;;;;;;;9.2;8.3;;;;;;;5.91;71.98633;942.1147;;;;
2019/04/04 02:34:13;;;;;;;8.7;7.8;;;;;;;5.96;71.74707;942.075;;;;
2019/04/04 02:36:38;;;;;;;10;9.1;;;;;;;5.89;71.76855;941.9996;;;;
2019/04/04 02:39:04;;;;;;;9;8.2;;;;;;;6;72.43555;942.0114;;;;
2019/04/04 02:41:30;;;;;;;9.2;8.3;;;;;;;6.04;71.68066;941.9464;;;;
2019/04/04 02:43:55;;;;;;;9.3;8.4;;;;;;;5.94;72.17676;941.8783;;;;
2019/04/04 02:46:22;;;;;;;8.2;7.5;;;;;;;5.88;72.05176;941.9188;;;;
2019/04/04 02:48:47;;;;;;;9.7;8.7;;;;;;;5.81;72.16504;941.8957;;;;
2019/04/04 02:51:12;;;;;;;10.6;9.6;;;;;;;5.72;72.95801;941.9127;;;;
2019/04/04 02:53:39;;;;;;;10.6;9.5;;;;;;;5.7;73.31934;941.9189;;;;
2019/04/04 02:56:16;;;;;;;11;10;;;;;;;5.79;73.8125;941.9747;;;;
2019/04/04 02:58:43;;;;;;;11.9;10.7;;;;;;;5.88;72.55176;941.9406;;;;
2019/04/04 03:01:08;;;;;;;12.1;11;;;;;;;5.69;72.48535;941.9852;;;;
2019/04/04 03:03:33;;;;;;;11.8;10.7;;;;;;;5.66;72.56055;941.9623;;;;
2019/04/04 03:05:58;;;;;;;12.6;11.4;;;;;;;5.46;73.07324;941.7698;;;;
2019/04/04 03:08:23;;;;;;;13;11.7;;;;;;;5.45;73.46973;941.8351;;;;
2019/04/04 03:10:48;;;;;;;13.7;11.1;;;;;;;5.44;73.59277;941.6855;;;;
2019/04/04 03:13:14;;;;;;;13.8;12.4;;;;;;;5.46;73.92578;941.6962;;;;
2019/04/04 03:15:40;;;;;;;14.4;12.9;;;;;;;5.53;74.01758;941.5304;;;;
2019/04/04 03:18:05;;;;;;;14.4;13;;;;;;;5.53;73.96094;941.5304;;;;
2019/04/04 03:20:30;;;;;;;15;13.4;;;;;;;5.53;73.69824;941.5999;;;;
2019/04/04 03:23:07;;;;;;;14.4;13.1;;;;;;;5.64;73.05664;941.5678;;;;
2019/04/04 03:25:38;;;;;;;14.1;12.7;;;;;;;5.72;73.44531;941.491;;;;
2019/04/04 03:28:03;;;;;;;14.4;13;;;;;;;5.8;72.71973;941.4874;;;;
2019/04/04 03:30:28;;;;;;;14.6;13.1;;;;;;;5.69;72.71484;941.4543;;;;
2019/04/04 03:32:53;;;;;;;15.1;13.6;;;;;;;5.66;73.31152;941.3976;;;;
2019/04/04 03:35:24;;;;;;;15.4;13.9;;;;;;;5.52;73.91406;941.402;;;;
2019/04/04 03:37:53;;;;;;;15.1;13.6;;;;;;;5.65;73.42383;941.2777;;;;
2019/04/04 03:40:18;;;;;;;15.3;13.8;;;;;;;5.81;73.75684;941.2064;;;;
2019/04/04 03:42:43;;;;;;;14.9;13.5;;;;;;;5.72;73.20801;941.2664;;;;
2019/04/04 03:45:10;;;;;;;14.9;13.4;;;;;;;5.68;72.75684;941.2449;;;;
2019/04/04 03:47:35;;;;;;;15.3;13.7;;;;;;;5.55;73.09766;941.1284;;;;
2019/04/04 03:50:01;;;;;;;16;14.4;;;;;;;5.56;73.49902;941.1317;;;;
2019/04/04 03:52:26;;;;;;;15.3;13.8;;;;;;;5.47;73.92773;941.0881;;;;
2019/04/04 03:54:51;;;;;;;15.7;13.6;;;;;;;5.43;73.72656;941.0669;;;;
2019/04/04 03:57:16;;;;;;;15.1;13.6;;;;;;;5.36;74.10059;941.0131;;;;
2019/04/04 03:59:41;;;;;;;15.3;13.8;;;;;;;5.35;74.29199;940.9579;;;;
2019/04/04 04:02:31;;;;;;;15.5;14;;;;;;;5.32;74.52832;940.7324;;;;
2019/04/04 04:04:56;;;;;;;14.4;12.9;;;;;;;5.5;74.44434;940.6635;;;;
2019/04/04 04:07:23;;;;;;;15;13.5;;;;;;;5.41;74.18945;940.6547;;;;
2019/04/04 04:09:48;;;;;;;14.6;13.2;;;;;;;5.37;74.95605;940.7967;;;;
2019/04/04 04:12:13;;;;;;;14.9;13.4;;;;;;;5.42;74.65918;940.7358;;;;
2019/04/04 04:14:40;;;;;;;15.5;14;;;;;;;5.39;75.57324;940.7089;;;;
2019/04/04 04:17:05;;;;;;;15.6;13.9;;;;;;;5.3;75.31934;940.7776;;;;
2019/04/04 04:19:30;;;;;;;16.4;14.7;;;;;;;5.29;75.23633;940.6239;;;;
2019/04/04 04:21:55;;;;;;;16.5;14.8;;;;;;;5.23;75.35156;940.5605;;;;
2019/04/04 04:24:21;;;;;;;15.9;14.3;;;;;;;5.3;75.42188;940.6484;;;;
2019/04/04 04:26:46;;;;;;;16;14.4;;;;;;;5.32;74.9375;940.7453;;;;
2019/04/04 04:29:16;;;;;;;16.2;14.6;;;;;;;5.23;75.625;940.6122;;;;
2019/04/04 04:31:46;;;;;;;16.3;14.6;;;;;;;5.35;75.29297;940.5872;;;;
2019/04/04 04:34:11;;;;;;;16;14.4;;;;;;;5.33;75.49414;940.5122;;;;
2019/04/04 04:36:36;;;;;;;16.6;14.9;;;;;;;5.29;75.33984;940.5069;;;;
2019/04/04 04:39:04;;;;;;;15.8;14.3;;;;;;;5.14;76.46094;940.4572;;;;
2019/04/04 04:41:29;;;;;;;15.7;14.1;;;;;;;4.97;76.67871;940.4656;;;;
2019/04/04 04:43:54;;;;;;;16.3;14.7;;;;;;;4.97;77.37402;940.435;;;;
2019/04/04 04:46:19;;;;;;;17.3;15.1;;;;;;;4.85;77.77246;940.3773;;;;
2019/04/04 04:48:45;;;;;;;19.7;15.8;;;;;;;4.97;78.05566;940.3664;;;;
2019/04/04 04:51:11;;;;;;;16.9;15.1;;;;;;;4.96;77.83789;940.358;;;;
2019/04/04 04:53:36;;;;;;;17.7;15.9;;;;;;;4.96;77.51953;940.3451;;;;
2019/04/04 04:56:01;;;;;;;18.3;16.4;;;;;;;4.93;78.08301;940.2448;;;;
2019/04/04 04:58:26;;;;;;;19.2;17.2;;;;;;;4.92;78.20605;940.1641;;;;
2019/04/04 05:00:51;;;;;;;19.1;17.1;;;;;;;4.98;77.92188;940.1711;;;;
2019/04/04 05:03:16;;;;;;;20.8;18.7;;;;;;;4.98;77.80664;939.9952;;;;
2019/04/04 05:05:42;;;;;;;21.5;19.3;;;;;;;4.89;78.45117;940.0678;;;;
2019/04/04 05:08:08;;;;;;;21.4;19.1;;;;;;;4.9;78.12305;940.0283;;;;
2019/04/04 05:10:32;;;;;;;22.3;19.9;;;;;;;4.92;78.06836;939.9664;;;;
2019/04/04 05:12:57;;;;;;;22.7;20.3;;;;;;;4.9;78.61035;939.9727;;;;
2019/04/04 05:15:23;;;;;;;23.2;20.5;;;;;;;4.85;78.64746;939.8699;;;;
2019/04/04 05:17:48;;;;;;;21.9;19.6;;;;;;;4.94;78.09375;939.7714;;;;
2019/04/04 05:20:13;;;;;;;22.8;20.4;;;;;;;4.97;77.93066;939.824;;;;
2019/04/04 05:22:38;;;;;;;24.7;22.1;;;;;;;4.78;79.16602;939.7997;;;;
2019/04/04 05:25:04;;;;;;;23.8;21.2;;;;;;;4.79;78.99902;939.6008;;;;
2019/04/04 05:27:29;;;;;;;24.6;21.8;;;;;;;4.7;79.70898;939.5573;;;;
2019/04/04 05:29:54;;;;;;;24.6;21.4;;;;;;;4.87;79.43262;939.5327;;;;
2019/04/04 05:32:19;;;;;;;23.4;20.9;;;;;;;4.94;78.50488;939.4955;;;;
2019/04/04 05:34:44;;;;;;;25.9;22.2;;;;;;;4.97;78.56445;939.3553;;;;
2019/04/04 05:37:09;;;;;;;23.9;21.3;;;;;;;5;78.16211;939.3781;;;;
2019/04/04 05:39:35;;;;;;;25;22.3;;;;;;;5.04;78.375;939.3903;;;;
2019/04/04 05:42:00;;;;;;;25.1;21.7;;;;;;;5.11;77.92188;939.3447;;;;
2019/04/04 05:44:25;;;;;;;27.5;23.6;;;;;;;5.07;78.35742;939.3881;;;;
2019/04/04 05:46:51;;;;;;;30;24.7;;;;;;;5.06;78.04883;939.372;;;;
2019/04/04 05:49:16;;;;;;;30.1;25.2;;;;;;;5.05;78.46777;939.308;;;;
2019/04/04 05:51:41;;;;;;;31.2;26.5;;;;;;;5.07;78.45996;939.2113;;;;
2019/04/04 05:54:07;;;;;;;34.7;27.4;;;;;;;4.99;78.91016;939.1244;;;;
2019/04/04 05:56:32;;;;;;;29.8;24.6;;;;;;;4.97;79.09082;939.0575;;;;
2019/04/04 05:59:01;;;;;;;33.1;27.1;;;;;;;4.89;79.55078;939.0786;;;;
2019/04/04 06:01:26;;;;;;;33.2;27.2;;;;;;;4.86;79.49902;938.9655;;;;
2019/04/04 06:03:51;;;;;;;35.9;27.5;;;;;;;4.98;79.4668;938.9445;;;;
2019/04/04 06:06:16;;;;;;;34.7;27;;;;;;;4.85;79.79395;938.9961;;;;
2019/04/04 06:08:57;;;;;;;34.1;27.3;;;;;;;4.75;80.24121;938.8943;;;;
2019/04/04 06:11:24;;;;;;;33.9;27.7;;;;;;;4.67;81.16895;938.9844;;;;
2019/04/04 06:13:59;;;;;;;31.7;25.9;;;;;;;4.81;80.42188;938.9698;;;;
2019/04/04 06:16:25;;;;;;;33.4;27.1;;;;;;;4.95;80.29004;938.9652;;;;
2019/04/04 06:18:50;;;;;;;30.5;24.9;;;;;;;5.13;79.6875;938.9083;;;;
2019/04/04 06:21:29;;;;;;;33.1;26;;;;;;;5.18;79.42285;939.0031;;;;
2019/04/04 06:23:54;;;;;;;30;25.4;;;;;;;5.21;78.67773;938.9612;;;;
2019/04/04 06:26:20;;;;;;;31;25.3;;;;;;;5.19;78.86914;938.8723;;;;
2019/04/04 06:28:45;;;;;;;29.6;23.9;;;;;;;5.17;79.01172;938.7583;;;;
2019/04/04 06:31:10;;;;;;;30.7;25;;;;;;;5.23;78.7959;938.7173;;;;
2019/04/04 06:33:35;;;;;;;31;24.1;;;;;;;5.26;78.59668;938.6199;;;;
2019/04/04 06:36:00;;;;;;;30.2;24.3;;;;;;;5.26;78.89355;938.5895;;;;
2019/04/04 06:38:26;;;;;;;31.4;24;;;;;;;5.11;79.23926;938.7256;;;;
2019/04/04 06:40:51;;;;;;;29.4;23.5;;;;;;;5.09;79.56543;938.5723;;;;
2019/04/04 06:43:16;;;;;;;31.1;24.3;;;;;;;5.12;79.62695;938.6516;;;;
2019/04/04 06:45:51;;;;;;;32.2;23.8;;;;;;;5.27;79.19043;938.6193;;;;
2019/04/04 06:48:16;;;;;;;25.5;21.6;;;;;;;5.4;78.48633;938.6408;;;;
2019/04/04 06:50:41;;;;;;;29;23;;;;;;;5.58;77.89355;938.6221;;;;
2019/04/04 06:53:07;;;;;;;25.7;21.6;;;;;;;5.69;77.67383;938.5378;;;;
2019/04/04 06:55:32;;;;;;;26.8;22;;;;;;;5.49;78.43457;938.5151;;;;
2019/04/04 06:57:57;;;;;;;29.1;23.9;;;;;;;5.32;78.46191;938.7081;;;;
2019/04/04 07:00:26;;;;;;;27.7;23.4;;;;;;;5.33;78.99609;938.5187;;;;
2019/04/04 07:02:55;;;;;;;25.3;21.5;;;;;;;5.58;78.30469;938.6908;;;;
2019/04/04 07:05:24;;;;;;;28.5;22.5;;;;;;;5.65;77.95215;938.615;;;;
2019/04/04 07:07:49;;;;;;;27;22.2;;;;;;;5.65;77.91797;938.6708;;;;
2019/04/04 07:10:18;;;;;;;26.9;22.4;;;;;;;5.55;78.22852;938.4919;;;;
2019/04/04 07:12:43;;;;;;;27.8;22.5;;;;;;;5.65;77.81543;938.675;;;;
2019/04/04 07:15:08;;;;;;;26.1;22.7;;;;;;;5.68;77.61719;938.6848;;;;
2019/04/04 07:17:33;;;;;;;27.2;22.6;;;;;;;5.61;77.77539;938.6965;;;;
2019/04/04 07:19:58;;;;;;;29.5;23.4;;;;;;;5.59;78.11328;938.8016;;;;
2019/04/04 07:22:23;;;;;;;26.4;23.3;;;;;;;5.55;78.57129;938.7673;;;;
2019/04/04 07:24:49;;;;;;;27.2;23.1;;;;;;;5.48;78.70605;938.8342;;;;
2019/04/04 07:27:14;;;;;;;26.2;22;;;;;;;5.79;77.91016;938.8895;;;;
2019/04/04 07:29:41;;;;;;;28.8;23.2;;;;;;;5.93;77.45605;938.8281;;;;
2019/04/04 07:32:06;;;;;;;27.5;22.9;;;;;;;6;76.08008;938.7344;;;;
2019/04/04 07:34:32;;;;;;;25;21.9;;;;;;;6.02;76.57324;938.7587;;;;
2019/04/04 07:36:59;;;;;;;24.9;21.8;;;;;;;6.21;76.41309;938.8463;;;;
2019/04/04 07:39:26;;;;;;;24.9;21;;;;;;;6.47;75.78613;938.863;;;;
2019/04/04 07:41:54;;;;;;;26.2;22.4;;;;;;;6.32;75.14453;938.8572;;;;
2019/04/04 07:44:19;;;;;;;24.2;21.6;;;;;;;6.52;76.26367;938.883;;;;
2019/04/04 07:46:44;;;;;;;22.8;20.4;;;;;;;6.7;73.89063;938.7991;;;;
2019/04/04 07:49:09;;;;;;;22.9;20.5;;;;;;;6.79;74.01855;938.9194;;;;
2019/04/04 07:51:34;;;;;;;21.4;19;;;;;;;6.98;73.06934;938.9122;;;;
2019/04/04 07:54:00;;;;;;;22.9;20.3;;;;;;;7.24;72.29102;938.88;;;;
2019/04/04 07:56:25;;;;;;;21.7;19.3;;;;;;;7.48;71.04199;938.9015;;;;
2019/04/04 07:58:54;;;;;;;22.6;20.2;;;;;;;7.46;71.19727;938.7484;;;;
2019/04/04 08:01:19;;;;;;;22.9;20.5;;;;;;;7.36;71.03125;938.9105;;;;
2019/04/04 08:03:48;;;;;;;22.7;19.6;;;;;;;7.51;70.86426;939.0059;;;;
2019/04/04 08:06:13;;;;;;;24.8;20.8;;;;;;;7.5;70.55273;939.0333;;;;
2019/04/04 08:08:39;;;;;;;26;22;;;;;;;7.4;72.82227;939.0613;;;;
2019/04/04 08:11:09;;;;;;;21.6;19.3;;;;;;;7.83;70.96094;939.0792;;;;
2019/04/04 08:13:34;;;;;;;23.2;20.7;;;;;;;7.93;69.10156;938.9646;;;;
2019/04/04 08:15:59;;;;;;;24.7;21.3;;;;;;;7.86;70.05078;939.0848;;;;
2019/04/04 08:18:25;;;;;;;23.1;20.6;;;;;;;8.13;67.66992;939.12;;;;
2019/04/04 08:20:50;;;;;;;24;21.1;;;;;;;8.19;68.28516;939.1221;;;;
2019/04/04 08:23:16;;;;;;;25;21.6;;;;;;;8.11;68.86816;939.2825;;;;
2019/04/04 08:25:49;;;;;;;23.9;21.4;;;;;;;8.16;68.30469;939.3453;;;;
2019/04/04 08:28:15;;;;;;;26.3;20.7;;;;;;;8.11;67.80469;939.2955;;;;
2019/04/04 08:30:40;;;;;;;25;21.5;;;;;;;7.8;68.60156;939.3329;;;;
2019/04/04 08:33:05;;;;;;;22.6;19.8;;;;;;;8.07;68.1416;939.3075;;;;
2019/04/04 08:35:30;;;;;;;22.8;20.3;;;;;;;7.93;67.48828;939.2849;;;;
2019/04/04 08:37:55;;;;;;;23.3;20.8;;;;;;;7.94;68.15527;939.2661;;;;
2019/04/04 08:40:28;;;;;;;22.9;19.6;;;;;;;8.2;66.86816;939.3452;;;;
2019/04/04 08:42:53;;;;;;;24.3;20.6;;;;;;;8.09;67.05664;939.4447;;;;
2019/04/04 08:45:21;;;;;;;25.4;21.2;;;;;;;7.95;69.23145;939.5117;;;;
2019/04/04 08:47:46;;;;;;;22.4;20;;;;;;;8.04;67.20996;939.4497;;;;
2019/04/04 08:50:11;;;;;;;21.8;19;;;;;;;8.16;67.26367;939.5399;;;;
2019/04/04 08:52:36;;;;;;;22.3;19.1;;;;;;;8.2;67.29199;939.6657;;;;
2019/04/04 08:55:01;;;;;;;22.8;19.4;;;;;;;8.14;67.06445;939.7374;;;;
2019/04/04 08:57:26;;;;;;;21.7;19.1;;;;;;;8.34;65.91602;939.7631;;;;
2019/04/04 08:59:51;;;;;;;22.2;19.3;;;;;;;8.17;66.9668;939.8289;;;;
2019/04/04 09:02:17;;;;;;;22.3;19.5;;;;;;;8.26;66.60352;939.7717;;;;
2019/04/04 09:04:42;;;;;;;22.9;20.3;;;;;;;8.36;66.42383;939.8555;;;;
2019/04/04 09:07:11;;;;;;;22.7;19.6;;;;;;;8.67;64.61523;939.8347;;;;
2019/04/04 09:09:36;;;;;;;23.5;20;;;;;;;8.2;65.33496;939.8904;;;;
2019/04/04 09:12:10;;;;;;;22.8;20.3;;;;;;;8.11;65.96191;939.9175;;;;
2019/04/04 09:14:35;;;;;;;23.3;19.7;;;;;;;8.2;66.16895;939.9992;;;;
2019/04/04 09:17:00;;;;;;;23.3;20.3;;;;;;;8.27;65.84766;939.9486;;;;
2019/04/04 09:19:47;;;;;;;21.9;19.1;;;;;;;8.38;66.37988;940.0577;;;;
2019/04/04 09:22:12;;;;;;;23.9;20;;;;;;;8.55;64.33398;940.0033;;;;
2019/04/04 09:24:40;;;;;;;24;21.2;;;;;;;8.51;65.56445;940.0734;;;;
2019/04/04 09:27:05;;;;;;;24.4;21.7;;;;;;;8.32;65.55859;939.9556;;;;
2019/04/04 09:29:32;;;;;;;23.4;20.6;;;;;;;8.43;65.5293;940.0168;;;;
2019/04/04 09:32:01;;;;;;;25.5;20.6;;;;;;;8.54;64.38965;940.0222;;;;
2019/04/04 09:34:26;;;;;;;25.4;21.6;;;;;;;8.28;65.18555;939.9816;;;;
2019/04/04 09:36:51;;;;;;;24.7;21.4;;;;;;;8.47;65.16895;940.0168;;;;
2019/04/04 09:39:16;;;;;;;26.8;21;;;;;;;8.74;64.48828;939.8961;;;;
2019/04/04 09:41:41;;;;;;;23.6;21;;;;;;;8.87;63.36035;940.0422;;;;
2019/04/04 09:44:06;;;;;;;24.5;21.5;;;;;;;8.65;63.90332;939.9794;;;;
2019/04/04 09:46:31;;;;;;;25.3;21.6;;;;;;;8.71;64.08105;940.0084;;;;
2019/04/04 09:48:57;;;;;;;23.1;20.4;;;;;;;9.03;63.37305;940.071;;;;
2019/04/04 09:51:22;;;;;;;24.5;21.2;;;;;;;8.99;62.35742;940.1024;;;;
2019/04/04 09:53:50;;;;;;;24.3;21.5;;;;;;;8.88;62.75586;940.0577;;;;
2019/04/04 09:56:15;;;;;;;25;21.3;;;;;;;9.21;61.91895;940.1551;;;;
2019/04/04 09:58:40;;;;;;;24.7;20.8;;;;;;;9.2;62.35449;940.052;;;;
2019/04/04 10:01:05;;;;;;;22.2;19.6;;;;;;;9.31;60.55762;940.0009;;;;
2019/04/04 10:03:32;;;;;;;21.8;19.3;;;;;;;9.54;60.31348;939.9703;;;;
2019/04/04 10:05:58;;;;;;;23.5;19.5;;;;;;;9.39;59.53418;939.8789;;;;
2019/04/04 10:08:29;;;;;;;23.3;20;;;;;;;9.37;60.07129;939.9158;;;;
2019/04/04 10:11:03;;;;;;;23.4;20.9;;;;;;;9.23;60.22363;939.9235;;;;
2019/04/04 10:13:28;;;;;;;24.1;21.1;;;;;;;8.47;62.82129;939.952;;;;
2019/04/04 10:16:01;;;;;;;23.1;20.5;;;;;;;8.63;62.32813;940.0258;;;;
2019/04/04 10:18:26;;;;;;;24;19.9;;;;;;;9.05;61.3457;940.1295;;;;
2019/04/04 10:20:51;;;;;;;23;19.1;;;;;;;9.3;60.8877;940.2665;;;;
2019/04/04 10:23:16;;;;;;;22.5;19.9;;;;;;;9.26;61.04297;940.2791;;;;
2019/04/04 10:25:41;;;;;;;22.1;19.7;;;;;;;9.21;61.45996;940.2811;;;;
2019/04/04 10:28:07;;;;;;;23.2;19.9;;;;;;;9.4;60.04199;940.2756;;;;
2019/04/04 10:30:32;;;;;;;25.1;20.5;;;;;;;9.17;60.37695;940.3585;;;;
2019/04/04 10:32:59;;;;;;;22.6;20.1;;;;;;;9.3;61.2793;940.4221;;;;
2019/04/04 10:35:25;;;;;;;23.2;20.7;;;;;;;9.43;60.52734;940.4291;;;;
2019/04/04 10:37:50;;;;;;;23.4;20.4;;;;;;;9.44;60.66699;940.389;;;;
2019/04/04 10:40:28;;;;;;;22.7;20;;;;;;;9.85;59.50586;940.4467;;;;
2019/04/04 10:42:54;;;;;;;25.2;19.9;;;;;;;10.31;58.29199;940.3672;;;;
2019/04/04 10:45:19;;;;;;;22.3;19.1;;;;;;;10.67;56.34961;940.2845;;;;
2019/04/04 10:47:44;;;;;;;20.6;18.3;;;;;;;10.88;56.36621;940.1074;;;;
2019/04/04 10:50:09;;;;;;;20;17.8;;;;;;;10.66;54.7959;940.1511;;;;
2019/04/04 10:52:34;;;;;;;20.3;18;;;;;;;10.74;55.31152;940.1682;;;;
2019/04/04 10:55:00;;;;;;;20.7;18.5;;;;;;;10.72;55.10156;940.1879;;;;
2019/04/04 10:57:25;;;;;;;19.2;17.1;;;;;;;10.94;55.39453;940.1401;;;;
2019/04/04 10:59:50;;;;;;;19.4;17.3;;;;;;;11.01;55.56445;940.0527;;;;
2019/04/04 11:02:16;;;;;;;22;17.7;;;;;;;11.13;53.27637;939.9906;;;;
2019/04/04 11:04:41;;;;;;;18.2;16.1;;;;;;;11.54;53.2334;939.9318;;;;
2019/04/04 11:07:06;;;;;;;18.5;16.3;;;;;;;11.19;52.84473;939.9752;;;;
2019/04/04 11:09:31;;;;;;;18.1;16.2;;;;;;;11.32;54.17383;939.9201;;;;
2019/04/04 11:11:56;;;;;;;18.3;16.3;;;;;;;11.56;55.7627;939.7814;;;;
2019/04/04 11:14:21;;;;;;;19.8;17.1;;;;;;;11.91;51.69824;939.8033;;;;
2019/04/04 11:16:55;;;;;;;20.4;17.5;;;;;;;11.53;51.82617;939.8455;;;;
2019/04/04 11:19:20;;;;;;;18;16.1;;;;;;;11.52;53.49707;939.8686;;;;
2019/04/04 11:21:45;;;;;;;34;18.2;;;;;;;11.25;53.98145;939.7198;;;;
2019/04/04 11:24:10;;;;;;;19.8;16.3;;;;;;;11.36;53.39551;939.7587;;;;
2019/04/04 11:26:35;;;;;;;18.7;16.7;;;;;;;11.51;53.60059;939.7739;;;;
2019/04/04 11:29:02;;;;;;;18.8;16.8;;;;;;;11.4;54.6582;939.8184;;;;
2019/04/04 11:31:25;;;;;;;18.1;16.3;;;;;;;11.63;51.87109;939.7989;;;;
2019/04/04 11:33:52;;;;;;;19.2;16.2;;;;;;;11.62;51.88281;939.8391;;;;
2019/04/04 11:36:17;;;;;;;32.9;18.3;;;;;;;10.91;53.75488;939.8519;;;;
2019/04/04 11:38:42;;;;;;;21.5;18.1;;;;;;;10.96;53.60059;939.8976;;;;
2019/04/04 11:41:07;;;;;;;23;17.7;;;;;;;10.66;54.41504;939.8564;;;;
2019/04/04 11:43:32;;;;;;;49.8;18.7;;;;;;;11.08;54.42188;939.9009;;;;
2019/04/04 11:46:10;;;;;;;25.4;17.1;;;;;;;11.55;56.46484;939.8918;;;;
2019/04/04 11:48:35;;;;;;;18.8;15.9;;;;;;;11.99;52.41211;939.8157;;;;
2019/04/04 11:51:00;;;;;;;18.3;16.4;;;;;;;12.28;50.93262;939.757;;;;
2019/04/04 11:53:25;;;;;;;47.1;17.8;;;;;;;11.6;51.67188;939.894;;;;
2019/04/04 11:55:51;;;;;;;19.2;15.9;;;;;;;11.77;52.74219;939.8995;;;;
2019/04/04 11:58:17;;;;;;;16.9;15.1;;;;;;;12.68;50.82813;940.0159;;;;
2019/04/04 12:00:44;;;;;;;18.5;16.6;;;;;;;13.14;50.80176;940.0003;;;;
2019/04/04 12:03:08;;;;;;;16.5;14.8;;;;;;;14.1;46.35449;940.1145;;;;
2019/04/04 12:05:33;;;;;;;17.6;15.2;;;;;;;14.79;44.85742;940.0533;;;;
2019/04/04 12:07:58;;;;;;;17.3;14.8;;;;;;;16.55;39.92871;940.1271;;;;
2019/04/04 12:10:23;;;;;;;15.6;13.9;;;;;;;18.24;35.63184;940.1522;;;;
2019/04/04 12:12:48;;;;;;;14;12.6;;;;;;;19.78;33.14746;940.2039;;;;
2019/04/04 12:15:13;;;;;;;14.6;13.2;;;;;;;18.62;34.14941;940.2502;;;;
2019/04/04 12:17:39;;;;;;;15.4;13.6;;;;;;;18.19;35.37012;940.1828;;;;
2019/04/04 12:20:05;;;;;;;14.3;12.9;;;;;;;20.61;31.81934;940.2018;;;;
2019/04/04 12:22:30;;;;;;;13.2;11.9;;;;;;;21.56;29.66797;940.1774;;;;
2019/04/04 12:24:55;;;;;;;13;11.7;;;;;;;21.71;28.8291;940.2491;;;;
2019/04/04 12:27:20;;;;;;;13.4;12.2;;;;;;;20.26;30.99414;940.3451;;;;
2019/04/04 12:29:45;;;;;;;13.3;12.1;;;;;;;18.02;34.68848;940.3753;;;;
2019/04/04 12:32:10;;;;;;;14.8;13.5;;;;;;;15.83;39.29297;940.4039;;;;
2019/04/04 12:34:35;;;;;;;14;12.7;;;;;;;14.67;42.55859;940.4139;;;;
2019/04/04 12:37:01;;;;;;;14.8;13.2;;;;;;;13.53;45.70215;940.5178;;;;
2019/04/04 12:39:26;;;;;;;14.7;13.2;;;;;;;14.18;44.4248;940.5105;;;;
2019/04/04 12:41:51;;;;;;;16;14.3;;;;;;;16.66;40.70898;940.4094;;;;
2019/04/04 12:44:16;;;;;;;14.1;12.8;;;;;;;18.34;35.38184;940.3881;;;;
2019/04/04 12:46:42;;;;;;;15.7;12.2;;;;;;;18.15;36.53711;940.4694;;;;
2019/04/04 12:49:07;;;;;;;13.6;12.2;;;;;;;17.26;37.49219;940.5474;;;;
2019/04/04 12:51:32;;;;;;;13.4;12;;;;;;;16.89;39.07227;940.6621;;;;
2019/04/04 12:53:57;;;;;;;13.3;12;;;;;;;16.27;39.8916;940.8289;;;;
2019/04/04 12:56:22;;;;;;;14.2;12.9;;;;;;;14.55;44.10254;940.9722;;;;
2019/04/04 12:58:47;;;;;;;13.7;12.4;;;;;;;14.51;45.51465;940.9341;;;;
2019/04/04 13:01:12;;;;;;;15.3;13.7;;;;;;;13.63;46.75684;940.8884;;;;
2019/04/04 13:03:37;;;;;;;14.2;12.7;;;;;;;14.02;46.41504;940.9381;;;;
2019/04/04 13:06:03;;;;;;;15.1;13.5;;;;;;;13.1;48.81836;941.0561;;;;
2019/04/04 13:08:28;;;;;;;14.4;12.7;;;;;;;12.5;49.97559;941.1193;;;;
2019/04/04 13:10:53;;;;;;;13.7;12.3;;;;;;;12.58;50.10059;941.1883;;;;
2019/04/04 13:13:18;;;;;;;14;12.1;;;;;;;11.73;51.93066;941.1917;;;;
2019/04/04 13:15:43;;;;;;;14.7;12.5;;;;;;;11.9;52.31934;941.2676;;;;
2019/04/04 13:18:08;;;;;;;14.4;12;;;;;;;11.84;52.08203;941.2266;;;;
2019/04/04 13:20:33;;;;;;;18.8;15.5;;;;;;;11.51;53.44824;941.3019;;;;
2019/04/04 13:22:58;;;;;;;14.6;11.7;;;;;;;11.19;54.36621;941.3187;;;;
2019/04/04 13:25:24;;;;;;;14.2;11.4;;;;;;;11.04;53.4834;941.4012;;;;
2019/04/04 13:27:49;;;;;;;13.1;10.7;;;;;;;10.7;55.24902;941.4107;;;;
2019/04/04 13:30:14;;;;;;;14.4;11.2;;;;;;;10.54;54.72266;941.5248;;;;
2019/04/04 13:32:39;;;;;;;12.4;10;;;;;;;10.27;55.59668;941.6212;;;;
2019/04/04 13:35:05;;;;;;;11.7;10.2;;;;;;;10.06;57.41016;941.6756;;;;
2019/04/04 13:37:30;;;;;;;12.1;10.4;;;;;;;9.96;57.47559;941.7087;;;;
2019/04/04 13:39:55;;;;;;;12;9.7;;;;;;;9.99;58.23828;941.7838;;;;
2019/04/04 13:42:21;;;;;;;11.6;9.8;;;;;;;9.91;57.88379;941.7793;;;;
2019/04/04 13:44:46;;;;;;;10.8;9.3;;;;;;;9.9;58.67578;941.8063;;;;
2019/04/04 13:47:11;;;;;;;12.7;9.4;;;;;;;9.81;58.43359;941.9208;;;;
2019/04/04 13:49:36;;;;;;;10.2;8.3;;;;;;;9.85;57.93262;941.8514;;;;
2019/04/04 13:52:02;;;;;;;10.1;8;;;;;;;9.97;57.83301;941.8943;;;;
2019/04/04 13:54:27;;;;;;;9;8.1;;;;;;;9.81;57.96191;941.8818;;;;
2019/04/04 13:56:53;;;;;;;8.5;7.4;;;;;;;9.57;57.9873;941.8875;;;;
2019/04/04 13:59:18;;;;;;;10.5;8.1;;;;;;;9.55;58.375;941.9241;;;;
2019/04/04 14:01:43;;;;;;;9.7;7.6;;;;;;;9.35;59.2666;941.9332;;;;
2019/04/04 14:04:08;;;;;;;9.9;8.2;;;;;;;9.14;60.04004;942.03;;;;
2019/04/04 14:06:33;;;;;;;9.5;8;;;;;;;9.43;59.56348;942.1199;;;;
2019/04/04 14:09:00;;;;;;;9.9;8.1;;;;;;;9.12;59.25684;942.3625;;;;
2019/04/04 14:11:25;;;;;;;9.1;7.8;;;;;;;9.42;59.32031;942.4766;;;;
2019/04/04 14:13:50;;;;;;;8.1;7.3;;;;;;;9.7;57.70508;942.4283;;;;